createdAt,value
2022-08-11T00:01:59.466Z,101216.13
2022-08-11T00:04:27.747Z,101216.22
2022-08-11T00:06:55.818Z,101221.66
2022-08-11T00:09:31.752Z,101219.91
2022-08-11T00:12:15.193Z,101214.97
2022-08-11T00:14:43.466Z,101221.72
2022-08-11T00:17:13.023Z,101217.22
2022-08-11T00:20:12.555Z,101212.34
2022-08-11T00:22:33.225Z,101207.56
2022-08-11T00:25:08.980Z,101212.50
2022-08-11T00:27:38.017Z,101214.00
2022-08-11T00:30:06.987Z,101207.47
2022-08-11T00:32:35.383Z,101198.78
2022-08-11T00:35:51.761Z,101204.38
2022-08-11T00:37:54.135Z,101202.75
2022-08-11T00:40:36.851Z,101195.56
2022-08-11T00:43:20.901Z,101203.56
2022-08-11T00:46:14.358Z,101199.97
2022-08-11T00:48:55.972Z,101198.78
2022-08-11T00:52:04.217Z,101195.75
2022-08-11T00:54:47.470Z,101193.16
2022-08-11T00:57:51.413Z,101193.59
2022-08-11T01:00:26.011Z,101196.19
2022-08-11T01:03:07.870Z,101189.38
2022-08-11T01:06:11.761Z,101187.34
2022-08-11T01:08:57.055Z,101193.06
2022-08-11T01:11:29.507Z,101196.69
2022-08-11T01:14:33.646Z,101193.38
2022-08-11T01:17:20.864Z,101191.88
2022-08-11T01:20:45.277Z,101195.38
2022-08-11T01:23:37.895Z,101194.88
2022-08-11T01:26:25.934Z,101200.53
2022-08-11T01:29:10.774Z,101192.09
2022-08-11T01:32:15.986Z,101196.81
2022-08-11T01:35:01.481Z,101188.09
2022-08-11T01:37:47.906Z,101191.75
2022-08-11T01:40:24.343Z,101187.88
2022-08-11T01:43:24.858Z,101192.78
2022-08-11T01:46:21.698Z,101194.47
2022-08-11T01:49:29.020Z,101195.47
2022-08-11T01:52:30.165Z,101188.16
2022-08-11T01:55:15.586Z,101186.16
2022-08-11T01:58:08.722Z,101198.63
2022-08-11T02:01:02.721Z,101193.66
2022-08-11T02:03:54.253Z,101191.31
2022-08-11T02:06:55.663Z,101194.25
2022-08-11T02:09:49.337Z,101192.28
2022-08-11T02:12:39.965Z,101186.97
2022-08-11T02:15:36.519Z,101187.75
2022-08-11T02:18:06.076Z,101179.16
2022-08-11T02:21:03.617Z,101182.06
2022-08-11T02:24:05.836Z,101190.09
2022-08-11T02:27:01.195Z,101183.00
2022-08-11T02:29:45.874Z,101190.84
2022-08-11T02:32:37.077Z,101190.03
2022-08-11T02:35:42.733Z,101187.78
2022-08-11T02:38:21.966Z,101186.22
2022-08-11T02:41:41.971Z,101187.19
2022-08-11T02:44:20.515Z,101185.78
2022-08-11T02:47:14.515Z,101186.38
2022-08-11T02:50:12.899Z,101185.28
2022-08-11T02:53:11.314Z,101185.00
2022-08-11T02:56:16.574Z,101191.06
2022-08-11T02:59:17.842Z,101188.88
2022-08-11T03:02:16.414Z,101185.41
2022-08-11T03:05:01.062Z,101190.47
2022-08-11T03:07:52.859Z,101184.84
2022-08-11T03:11:06.950Z,101184.63
2022-08-11T03:13:57.975Z,101191.38
2022-08-11T03:17:00.478Z,101193.31
2022-08-11T03:19:36.071Z,101192.00
2022-08-11T03:22:51.000Z,101185.50
2022-08-11T03:25:46.417Z,101193.03
2022-08-11T03:28:36.761Z,101188.56
2022-08-11T03:31:41.104Z,101189.72
2022-08-11T03:34:15.464Z,101191.66
2022-08-11T03:37:16.294Z,101192.66
2022-08-11T03:39:56.776Z,101193.94
2022-08-11T03:42:44.951Z,101199.25
2022-08-11T03:45:42.326Z,101195.59
2022-08-11T03:48:33.715Z,101192.94
2022-08-11T03:51:44.838Z,101190.13
2022-08-11T03:54:45.250Z,101193.31
2022-08-11T03:57:38.878Z,101187.53
2022-08-11T04:00:33.281Z,101181.56
2022-08-11T04:03:08.919Z,101174.34
2022-08-11T04:06:11.915Z,101171.97
2022-08-11T04:08:42.031Z,101176.00
2022-08-11T04:11:14.331Z,101178.00
2022-08-11T04:14:29.220Z,101192.91
2022-08-11T04:17:01.558Z,101188.78
2022-08-11T04:20:12.134Z,101190.81
2022-08-11T04:23:03.391Z,101192.06
2022-08-11T04:26:18.530Z,101183.31
2022-08-11T04:29:04.224Z,101176.66
2022-08-11T04:31:51.857Z,101187.25
2022-08-11T04:34:36.625Z,101178.63
2022-08-11T04:37:41.783Z,101180.41
2022-08-11T04:40:26.585Z,101174.97
2022-08-11T04:43:21.028Z,101178.47
2022-08-11T04:46:12.254Z,101177.16
2022-08-11T04:49:33.285Z,101180.13
2022-08-11T04:52:38.526Z,101179.19
2022-08-11T04:55:45.278Z,101182.13
2022-08-11T04:59:01.487Z,101179.56
2022-08-11T05:01:54.623Z,101181.94
2022-08-11T05:04:39.895Z,101178.69
2022-08-11T05:07:06.343Z,101171.97
2022-08-11T05:09:54.589Z,101184.13
2022-08-11T05:12:36.437Z,101174.91
2022-08-11T05:15:22.890Z,101185.47
2022-08-11T05:18:19.377Z,101181.56
2022-08-11T05:21:15.807Z,101180.69
2022-08-11T05:24:07.468Z,101190.16
2022-08-11T05:27:04.460Z,101195.25
2022-08-11T05:30:04.835Z,101194.00
2022-08-11T05:33:01.748Z,101196.56
2022-08-11T05:36:02.413Z,101197.13
2022-08-11T05:38:46.707Z,101191.09
2022-08-11T05:41:32.926Z,101197.00
2022-08-11T05:44:22.310Z,101202.53
2022-08-11T05:47:09.203Z,101205.97
2022-08-11T05:49:56.642Z,101211.84
2022-08-11T05:52:46.874Z,101210.50
2022-08-11T05:55:34.989Z,101207.25
2022-08-11T05:58:05.758Z,101210.47
2022-08-11T06:00:42.082Z,101211.56
2022-08-11T06:03:10.985Z,101217.75
2022-08-11T06:05:44.023Z,101212.09
2022-08-11T06:08:12.703Z,101206.25
2022-08-11T06:10:44.286Z,101205.38
2022-08-11T06:13:16.738Z,101203.09
2022-08-11T06:15:49.243Z,101201.78
2022-08-11T06:18:16.911Z,101205.28
2022-08-11T06:20:55.842Z,101200.63
2022-08-11T06:23:25.214Z,101206.38
2022-08-11T06:25:53.183Z,101204.06
2022-08-11T06:28:32.887Z,101197.28
2022-08-11T06:31:00.664Z,101201.59
2022-08-11T06:33:35.651Z,101204.75
2022-08-11T06:36:15.844Z,101203.69
2022-08-11T06:39:10.114Z,101200.56
2022-08-11T06:42:06.224Z,101185.66
2022-08-11T06:44:41.706Z,101198.91
2022-08-11T06:47:11.563Z,101202.59
2022-08-11T06:50:02.657Z,101198.66
2022-08-11T06:52:36.121Z,101199.91
2022-08-11T06:55:55.995Z,101200.69
2022-08-11T06:58:29.666Z,101196.31
2022-08-11T07:00:58.838Z,101199.38
2022-08-11T07:03:28.859Z,101196.91
2022-08-11T07:06:06.458Z,101201.88
2022-08-11T07:09:00.714Z,101204.47
2022-08-11T07:12:07.647Z,101193.31
2022-08-11T07:14:58.912Z,101199.09
2022-08-11T07:17:30.271Z,101199.38
2022-08-11T07:20:18.306Z,101196.06
2022-08-11T07:23:12.387Z,101197.03
2022-08-11T07:26:07.190Z,101189.09
2022-08-11T07:28:55.714Z,101194.03
2022-08-11T07:31:43.592Z,101192.97
2022-08-11T07:34:18.554Z,101188.84
2022-08-11T07:37:04.917Z,101190.16
2022-08-11T07:39:33.381Z,101188.78
2022-08-11T07:42:08.961Z,101185.66
2022-08-11T07:44:56.054Z,101185.59
2022-08-11T07:47:42.651Z,101180.88
2022-08-11T07:50:29.636Z,101179.41
2022-08-11T07:52:59.953Z,101177.50
2022-08-11T07:55:51.770Z,101176.31
2022-08-11T07:58:52.438Z,101180.53
2022-08-11T08:01:41.217Z,101176.72
2022-08-11T08:04:29.911Z,101172.03
2022-08-11T08:07:16.517Z,101179.44
2022-08-11T08:10:03.349Z,101170.28
2022-08-11T08:12:50.462Z,101181.09
2022-08-11T08:15:36.249Z,101171.81
2022-08-11T08:18:09.477Z,101179.22
2022-08-11T08:20:54.927Z,101172.31
2022-08-11T08:23:34.980Z,101174.81
2022-08-11T08:26:30.356Z,101178.91
2022-08-11T08:29:20.803Z,101179.56
2022-08-11T08:31:48.875Z,101175.00
2022-08-11T08:34:17.854Z,101178.25
2022-08-11T08:36:47.186Z,101178.00
2022-08-11T08:39:14.467Z,101181.56
2022-08-11T08:41:43.728Z,101179.06
2022-08-11T08:44:37.142Z,101177.69
2022-08-11T08:47:04.203Z,101175.03
2022-08-11T08:49:40.524Z,101168.56
2022-08-11T08:52:30.496Z,101169.53
2022-08-11T08:55:02.324Z,101175.53
2022-08-11T08:57:31.709Z,101171.03
2022-08-11T09:00:08.904Z,101169.13
2022-08-11T09:02:40.256Z,101171.22
2022-08-11T09:05:09.979Z,101166.88
2022-08-11T09:07:39.601Z,101156.22
2022-08-11T09:10:11.013Z,101152.31
2022-08-11T09:12:41.665Z,101147.94
2022-08-11T09:15:11.614Z,101151.00
2022-08-11T09:17:41.958Z,101152.63
2022-08-11T09:20:19.886Z,101145.88
2022-08-11T09:24:06.401Z,101145.28
2022-08-11T09:26:18.212Z,101144.19
2022-08-11T09:28:47.046Z,101148.13
2022-08-11T09:31:14.987Z,101144.97
2022-08-11T09:33:44.082Z,101143.16
2022-08-11T09:36:31.778Z,101140.47
2022-08-11T09:39:18.172Z,101138.91
2022-08-11T09:42:00.613Z,101140.28
2022-08-11T09:44:48.965Z,101140.91
2022-08-11T09:47:24.532Z,101130.41
2022-08-11T09:49:55.080Z,101129.44
2022-08-11T09:52:23.671Z,101122.13
2022-08-11T09:54:51.598Z,101128.59
2022-08-11T09:57:40.882Z,101125.22
2022-08-11T10:00:13.085Z,101121.38
2022-08-11T10:02:47.346Z,101112.75
2022-08-11T10:05:37.022Z,101117.50
2022-08-11T10:08:05.487Z,101109.88
2022-08-11T10:10:36.381Z,101104.78
2022-08-11T10:14:30.315Z,101103.41
2022-08-11T10:16:14.739Z,101111.00
2022-08-11T10:18:52.810Z,101105.63
2022-08-11T10:21:40.947Z,101111.44
2022-08-11T10:24:28.307Z,101108.59
2022-08-11T10:26:58.844Z,101110.63
2022-08-11T10:29:50.110Z,101105.69
2022-08-11T10:32:58.416Z,101112.00
2022-08-11T10:35:28.282Z,101097.88
2022-08-11T10:38:15.685Z,101099.25
2022-08-11T10:40:46.912Z,101102.63
2022-08-11T10:44:01.896Z,101103.94
2022-08-11T10:46:25.721Z,101104.47
2022-08-11T10:48:58.012Z,101091.84
2022-08-11T10:51:51.497Z,101097.69
2022-08-11T10:54:41.201Z,101098.53
2022-08-11T10:57:37.546Z,101094.34
2022-08-11T11:00:06.863Z,101090.97
2022-08-11T11:02:34.990Z,101088.78
2022-08-11T11:05:16.462Z,101083.88
2022-08-11T11:07:54.954Z,101083.03
2022-08-11T11:10:21.791Z,101080.75
2022-08-11T11:13:14.038Z,101083.16
2022-08-11T11:16:03.316Z,101080.19
2022-08-11T11:18:36.634Z,101073.38
2022-08-11T11:21:08.093Z,101069.72
2022-08-11T11:23:40.553Z,101072.63
2022-08-11T11:26:35.901Z,101079.06
2022-08-11T11:29:28.510Z,101074.38
2022-08-11T11:32:17.987Z,101070.19
2022-08-11T11:35:12.531Z,101059.03
2022-08-11T11:37:40.787Z,101069.41
2022-08-11T11:40:28.686Z,101069.47
2022-08-11T11:42:59.772Z,101070.31
2022-08-11T11:45:26.634Z,101066.47
2022-08-11T11:47:55.387Z,101070.78
2022-08-11T11:50:37.023Z,101064.09
2022-08-11T11:53:10.025Z,101063.34
2022-08-11T11:55:37.863Z,101067.28
2022-08-11T11:58:23.941Z,101059.41
2022-08-11T12:01:11.900Z,101056.19
2022-08-11T12:03:40.373Z,101052.28
2022-08-11T12:06:09.177Z,101048.69
2022-08-11T12:08:37.423Z,101046.75
2022-08-11T12:11:25.573Z,101046.69
2022-08-11T12:13:54.110Z,101043.41
2022-08-11T12:16:34.074Z,101031.84
2022-08-11T12:19:12.956Z,101034.75
2022-08-11T12:22:01.410Z,101022.44
2022-08-11T12:24:48.660Z,101032.94
2022-08-11T12:27:25.297Z,101028.22
2022-08-11T12:30:02.027Z,101033.41
2022-08-11T12:32:31.218Z,101020.94
2022-08-11T12:34:58.438Z,101022.91
2022-08-11T12:37:36.936Z,101029.38
2022-08-11T12:40:42.472Z,101025.78
2022-08-11T12:43:37.764Z,101024.56
2022-08-11T12:46:15.574Z,101022.00
2022-08-11T12:49:03.958Z,101019.66
2022-08-11T12:52:10.953Z,101017.00
2022-08-11T12:55:02.549Z,101009.13
2022-08-11T12:58:01.446Z,101009.38
2022-08-11T13:00:48.580Z,101007.00
2022-08-11T13:03:37.145Z,101006.22
2022-08-11T13:06:05.421Z,101004.13
2022-08-11T13:08:38.032Z,101005.28
2022-08-11T13:11:24.175Z,101001.16
2022-08-11T13:13:57.418Z,100992.16
2022-08-11T13:16:29.156Z,100983.53
2022-08-11T13:18:58.801Z,100986.78
2022-08-11T13:21:27.093Z,100983.47
2022-08-11T13:24:01.324Z,100985.63
2022-08-11T13:26:47.395Z,100983.69
2022-08-11T13:29:25.360Z,100978.94
2022-08-11T13:31:54.532Z,100969.94
2022-08-11T13:34:24.323Z,100968.88
2022-08-11T13:36:53.474Z,100971.78
2022-08-11T13:39:24.209Z,100959.56
2022-08-11T13:41:53.509Z,100962.63
2022-08-11T13:44:25.614Z,100957.19
2022-08-11T13:46:56.402Z,100956.41
2022-08-11T13:49:23.656Z,100959.22
2022-08-11T13:51:50.817Z,100952.66
2022-08-11T13:54:21.758Z,100956.94
2022-08-11T13:56:52.882Z,100947.69
2022-08-11T13:59:29.611Z,100944.84
2022-08-11T14:02:28.386Z,100950.97
2022-08-11T14:04:57.626Z,100951.44
2022-08-11T14:07:34.437Z,100957.47
2022-08-11T14:10:02.729Z,100946.09
2022-08-11T14:12:53.234Z,100945.00
2022-08-11T14:15:25.537Z,100952.31
2022-08-11T14:18:03.226Z,100943.59
2022-08-11T14:20:52.026Z,100937.44
2022-08-11T14:23:22.711Z,100937.34
2022-08-11T14:26:08.360Z,100938.72
2022-08-11T14:28:40.329Z,100928.38
2022-08-11T14:31:14.281Z,100935.91
2022-08-11T14:33:58.411Z,100928.00
2022-08-11T14:36:34.996Z,100919.69
2022-08-11T14:39:05.821Z,100920.38
2022-08-11T14:42:10.830Z,100922.81
2022-08-11T14:44:58.938Z,100912.16
2022-08-11T14:47:27.588Z,100914.97
2022-08-11T14:50:09.428Z,100918.22
2022-08-11T14:52:38.477Z,100910.19
2022-08-11T14:55:24.814Z,100907.19
2022-08-11T14:57:54.838Z,100910.34
2022-08-11T15:00:23.910Z,100908.13
2022-08-11T15:03:11.261Z,100900.03
2022-08-11T15:05:56.107Z,100903.75
2022-08-11T15:08:47.359Z,100901.59
2022-08-11T15:11:34.415Z,100894.00
2022-08-11T15:14:03.850Z,100891.91
2022-08-11T15:16:49.774Z,100894.69
2022-08-11T15:19:21.069Z,100882.13
2022-08-11T15:22:08.579Z,100886.03
2022-08-11T15:24:36.858Z,100888.38
2022-08-11T15:27:31.257Z,100881.88
2022-08-11T15:30:32.245Z,100882.09
2022-08-11T15:33:20.153Z,100883.69
2022-08-11T15:36:05.314Z,100875.25
2022-08-11T15:38:36.365Z,100869.38
2022-08-11T15:41:24.029Z,100872.16
2022-08-11T15:44:13.509Z,100864.63
2022-08-11T15:46:47.527Z,100861.81
2022-08-11T15:50:10.893Z,100857.75
2022-08-11T15:52:31.803Z,100860.50
2022-08-11T15:55:02.262Z,100853.59
2022-08-11T15:57:49.083Z,100843.88
2022-08-11T16:00:35.967Z,100849.69
2022-08-11T16:03:23.224Z,100841.84
2022-08-11T16:05:53.239Z,100848.59
2022-08-11T16:08:33.171Z,100845.41
2022-08-11T16:11:02.313Z,100841.25
2022-08-11T16:13:32.987Z,100842.50
2022-08-11T16:16:15.131Z,100826.44
2022-08-11T16:18:56.633Z,100845.25
2022-08-11T16:21:34.972Z,100836.41
2022-08-11T16:24:07.702Z,100832.78
2022-08-11T16:26:38.219Z,100832.66
2022-08-11T16:29:25.561Z,100839.94
2022-08-11T16:32:14.390Z,100835.97
2022-08-11T16:35:01.355Z,100833.44
2022-08-11T16:37:48.162Z,100835.16
2022-08-11T16:40:16.151Z,100827.41
2022-08-11T16:43:10.891Z,100830.34
2022-08-11T16:45:59.672Z,100826.53
2022-08-11T16:48:37.168Z,100820.59
2022-08-11T16:51:10.465Z,100821.94
2022-08-11T16:54:03.266Z,100815.84
2022-08-11T16:56:34.175Z,100822.94
2022-08-11T16:59:16.639Z,100819.75
2022-08-11T17:01:59.459Z,100815.91
2022-08-11T17:05:02.677Z,100815.34
2022-08-11T17:07:49.084Z,100815.50
2022-08-11T17:10:51.328Z,100815.31
2022-08-11T17:13:25.722Z,100807.75
2022-08-11T17:16:09.464Z,100815.22
2022-08-11T17:18:43.437Z,100804.72
2022-08-11T17:21:26.227Z,100806.66
2022-08-11T17:23:57.134Z,100804.00
2022-08-11T17:26:23.822Z,100797.28
2022-08-11T17:28:56.703Z,100804.56
2022-08-11T17:31:43.249Z,100798.03
2022-08-11T17:34:28.788Z,100798.16
2022-08-11T17:36:56.331Z,100793.22
2022-08-11T17:39:29.493Z,100793.00
2022-08-11T17:42:16.145Z,100789.31
2022-08-11T17:45:10.153Z,100786.88
2022-08-11T17:47:57.009Z,100794.47
2022-08-11T17:50:24.096Z,100798.34
2022-08-11T17:53:10.245Z,100786.25
2022-08-11T17:55:57.764Z,100787.31
2022-08-11T17:58:45.038Z,100792.47
2022-08-11T18:01:14.325Z,100794.94
2022-08-11T18:03:57.577Z,100789.00
2022-08-11T18:06:34.492Z,100790.50
2022-08-11T18:09:23.861Z,100788.06
2022-08-11T18:12:12.703Z,100790.66
2022-08-11T18:15:02.586Z,100786.09
2022-08-11T18:17:48.252Z,100788.09
2022-08-11T18:20:33.707Z,100787.44
2022-08-11T18:23:42.039Z,100786.72
2022-08-11T18:26:29.179Z,100792.69
2022-08-11T18:29:16.170Z,100784.47
2022-08-11T18:32:07.169Z,100780.94
2022-08-11T18:34:59.877Z,100786.88
2022-08-11T18:37:48.251Z,100786.09
2022-08-11T18:40:38.192Z,100793.97
2022-08-11T18:43:27.589Z,100792.38
2022-08-11T18:46:19.827Z,100794.69
2022-08-11T18:49:14.480Z,100803.72
2022-08-11T18:52:05.030Z,100805.66
2022-08-11T18:54:53.516Z,100804.44
2022-08-11T18:57:53.955Z,100811.16
2022-08-11T19:00:41.864Z,100810.56
2022-08-11T19:03:29.980Z,100818.81
2022-08-11T19:06:38.082Z,100813.94
2022-08-11T19:09:28.898Z,100814.94
2022-08-11T19:12:15.202Z,100817.94
2022-08-11T19:15:01.728Z,100820.25
2022-08-11T19:17:49.572Z,100821.34
2022-08-11T19:20:40.574Z,100831.50
2022-08-11T19:23:29.638Z,100839.66
2022-08-11T19:26:16.974Z,100839.13
2022-08-11T19:29:06.822Z,100843.94
2022-08-11T19:31:53.142Z,100844.63
2022-08-11T19:34:41.345Z,100854.97
2022-08-11T19:37:28.309Z,100859.16
2022-08-11T19:40:21.391Z,100858.97
2022-08-11T19:43:14.768Z,100869.81
2022-08-11T19:46:11.497Z,100872.34
2022-08-11T19:48:57.153Z,100877.78
2022-08-11T19:51:43.584Z,100877.13
2022-08-11T19:54:29.599Z,100874.25
2022-08-11T19:57:15.225Z,100877.19
2022-08-11T20:00:01.150Z,100882.31
2022-08-11T20:02:47.234Z,100877.28
2022-08-11T20:05:32.348Z,100887.75
2022-08-11T20:08:18.840Z,100886.78
2022-08-11T20:11:06.426Z,100893.88
2022-08-11T20:13:53.867Z,100892.88
2022-08-11T20:16:42.223Z,100893.97
2022-08-11T20:19:56.336Z,100898.22
2022-08-11T20:22:34.785Z,100891.81
2022-08-11T20:25:22.818Z,100898.22
2022-08-11T20:28:10.596Z,100899.22
2022-08-11T20:30:56.868Z,100902.63
2022-08-11T20:33:43.267Z,100902.44
2022-08-11T20:36:30.593Z,100905.63
2022-08-11T20:39:18.116Z,100910.16
2022-08-11T20:42:07.031Z,100905.34
2022-08-11T20:44:55.847Z,100901.72
2022-08-11T20:47:59.384Z,100907.44
2022-08-11T20:50:48.040Z,100910.81
2022-08-11T20:53:40.518Z,100912.59
2022-08-11T20:56:28.481Z,100907.44
2022-08-11T20:59:18.944Z,100915.75
2022-08-11T21:05:15.847Z,100933.19
2022-08-11T21:08:08.827Z,100920.09
2022-08-11T21:11:00.365Z,100919.66
2022-08-11T21:13:48.621Z,100922.38
2022-08-11T21:16:48.918Z,100919.63
2022-08-11T21:20:06.981Z,100921.53
2022-08-11T21:23:05.968Z,100921.19
2022-08-11T21:25:59.520Z,100929.19
2022-08-11T21:28:46.897Z,100933.44
2022-08-11T21:31:34.527Z,100933.44
2022-08-11T21:34:21.232Z,100929.59
2022-08-11T21:37:08.974Z,100937.94
2022-08-11T21:39:54.864Z,100930.53
2022-08-11T21:42:41.747Z,100928.41
2022-08-11T21:45:28.996Z,100928.41
2022-08-11T21:48:15.624Z,100927.16
2022-08-11T21:51:00.967Z,100919.69
2022-08-11T21:53:46.963Z,100936.63
2022-08-11T21:56:33.308Z,100930.56
2022-08-11T21:59:20.487Z,100942.63
2022-08-11T22:02:12.370Z,100938.75
2022-08-11T22:04:58.085Z,100942.41
2022-08-11T22:07:43.584Z,100947.88
2022-08-11T22:10:41.516Z,100940.59
2022-08-11T22:13:29.970Z,100961.34
2022-08-11T22:16:15.974Z,100956.66
2022-08-11T22:19:01.969Z,100964.91
2022-08-11T22:22:01.060Z,100964.22
2022-08-11T22:24:51.186Z,100972.38
2022-08-11T22:27:36.786Z,100981.44
2022-08-11T22:30:24.154Z,100985.31
2022-08-11T22:33:10.340Z,100987.41
2022-08-11T22:35:58.077Z,100983.25
2022-08-11T22:38:45.213Z,100988.53
2022-08-11T22:41:31.121Z,100989.53
2022-08-11T22:44:16.382Z,100985.09
2022-08-11T22:47:01.922Z,100986.94
2022-08-11T22:49:57.435Z,100991.47
2022-08-11T22:52:45.201Z,100982.91
2022-08-11T22:55:31.746Z,100988.34
2022-08-11T22:58:17.176Z,100982.19
2022-08-11T23:01:04.308Z,100979.94
2022-08-11T23:03:52.194Z,100990.69
2022-08-11T23:06:38.988Z,100991.97
2022-08-11T23:09:25.953Z,100997.22
2022-08-11T23:12:11.899Z,100998.19
2022-08-11T23:14:58.445Z,100998.41
2022-08-11T23:17:44.975Z,100993.16
2022-08-11T23:20:43.715Z,100998.44
2022-08-11T23:23:38.727Z,100996.03
2022-08-11T23:26:24.631Z,101000.59
2022-08-11T23:29:11.505Z,100998.47
2022-08-11T23:31:57.377Z,100998.16
2022-08-11T23:35:36.891Z,100996.59
2022-08-11T23:37:55.910Z,100987.97
2022-08-11T23:40:44.822Z,101003.31
2022-08-11T23:43:41.210Z,100997.91
2022-08-11T23:46:26.627Z,101000.44
2022-08-11T23:49:15.184Z,100994.88
2022-08-11T23:52:01.459Z,100995.81
2022-08-11T23:54:47.463Z,100999.34
2022-08-11T23:57:32.822Z,100999.34
